sensor_id;sensor_type;location;lat;lon;timestamp;temperature;humidity
37300;DHT22;23184;51.902;12.836;2023-08-30T00:00:35;13.80;99.90
37300;DHT22;23184;51.902;12.836;2023-08-30T00:03:00;13.80;99.90
37300;DHT22;23184;51.902;12.836;2023-08-30T00:05:26;13.80;99.90
37300;DHT22;23184;51.902;12.836;2023-08-30T00:07:56;13.70;99.90
37300;DHT22;23184;51.902;12.836;2023-08-30T00:10:21;13.70;99.90
37300;DHT22;23184;51.902;12.836;2023-08-30T00:12:47;13.70;99.90
37300;DHT22;23184;51.902;12.836;2023-08-30T00:15:13;13.80;99.90
37300;DHT22;23184;51.902;12.836;2023-08-30T00:17:39;13.70;99.90
37300;DHT22;23184;51.902;12.836;2023-08-30T00:20:05;13.70;99.90
37300;DHT22;23184;51.902;12.836;2023-08-30T00:22:32;13.70;99.90
37300;DHT22;23184;51.902;12.836;2023-08-30T00:24:57;13.70;99.90
37300;DHT22;23184;51.902;12.836;2023-08-30T00:27:23;13.70;99.90
37300;DHT22;23184;51.902;12.836;2023-08-30T00:29:49;13.70;99.90
37300;DHT22;23184;51.902;12.836;2023-08-30T00:32:14;13.70;99.90
37300;DHT22;23184;51.902;12.836;2023-08-30T00:34:40;13.70;99.90
37300;DHT22;23184;51.902;12.836;2023-08-30T00:37:06;13.70;99.90
37300;DHT22;23184;51.902;12.836;2023-08-30T00:39:31;13.70;99.90
37300;DHT22;23184;51.902;12.836;2023-08-30T00:41:57;13.70;99.90
37300;DHT22;23184;51.902;12.836;2023-08-30T00:44:22;13.80;99.90
37300;DHT22;23184;51.902;12.836;2023-08-30T00:46:48;13.80;99.90
37300;DHT22;23184;51.902;12.836;2023-08-30T00:49:14;13.80;99.90
37300;DHT22;23184;51.902;12.836;2023-08-30T00:51:40;13.80;99.90
37300;DHT22;23184;51.902;12.836;2023-08-30T00:54:06;13.80;99.90
37300;DHT22;23184;51.902;12.836;2023-08-30T00:56:32;13.80;99.90
37300;DHT22;23184;51.902;12.836;2023-08-30T00:58:58;13.80;99.90
37300;DHT22;23184;51.902;12.836;2023-08-30T01:01:24;13.80;99.90
37300;DHT22;23184;51.902;12.836;2023-08-30T01:03:49;13.90;99.90
37300;DHT22;23184;51.902;12.836;2023-08-30T01:06:15;13.80;99.90
37300;DHT22;23184;51.902;12.836;2023-08-30T01:08:42;13.90;99.90
37300;DHT22;23184;51.902;12.836;2023-08-30T01:12:08;13.90;99.90
37300;DHT22;23184;51.902;12.836;2023-08-30T01:14:22;13.90;99.90
37300;DHT22;23184;51.902;12.836;2023-08-30T01:16:51;13.90;99.90
37300;DHT22;23184;51.902;12.836;2023-08-30T01:22:20;13.90;99.90
37300;DHT22;23184;51.902;12.836;2023-08-30T01:25:08;13.80;99.90
37300;DHT22;23184;51.902;12.836;2023-08-30T01:27:35;13.80;99.90
37300;DHT22;23184;51.902;12.836;2023-08-30T01:30:02;13.80;99.90
37300;DHT22;23184;51.902;12.836;2023-08-30T01:32:31;13.70;99.90
37300;DHT22;23184;51.902;12.836;2023-08-30T01:34:59;13.70;99.90
37300;DHT22;23184;51.902;12.836;2023-08-30T01:37:25;13.70;99.90
37300;DHT22;23184;51.902;12.836;2023-08-30T01:39:52;13.70;99.90
37300;DHT22;23184;51.902;12.836;2023-08-30T01:42:18;13.70;99.90
37300;DHT22;23184;51.902;12.836;2023-08-30T01:44:49;13.70;99.90
37300;DHT22;23184;51.902;12.836;2023-08-30T01:47:15;13.70;99.90
37300;DHT22;23184;51.902;12.836;2023-08-30T01:49:42;13.70;99.90
37300;DHT22;23184;51.902;12.836;2023-08-30T01:52:09;13.70;99.90
37300;DHT22;23184;51.902;12.836;2023-08-30T01:54:36;13.70;99.90
37300;DHT22;23184;51.902;12.836;2023-08-30T01:57:03;13.70;99.90
37300;DHT22;23184;51.902;12.836;2023-08-30T01:59:29;13.70;99.90
37300;DHT22;23184;51.902;12.836;2023-08-30T02:01:55;13.70;99.90
37300;DHT22;23184;51.902;12.836;2023-08-30T02:04:21;13.70;99.90
37300;DHT22;23184;51.902;12.836;2023-08-30T02:07:18;13.80;99.90
37300;DHT22;23184;51.902;12.836;2023-08-30T02:09:51;13.70;99.90
37300;DHT22;23184;51.902;12.836;2023-08-30T02:12:20;13.70;99.90
37300;DHT22;23184;51.902;12.836;2023-08-30T02:14:49;13.70;99.90
37300;DHT22;23184;51.902;12.836;2023-08-30T02:17:15;13.70;99.90
37300;DHT22;23184;51.902;12.836;2023-08-30T02:19:42;13.80;99.90
37300;DHT22;23184;51.902;12.836;2023-08-30T02:22:08;13.80;99.90
37300;DHT22;23184;51.902;12.836;2023-08-30T02:24:34;13.80;99.90
37300;DHT22;23184;51.902;12.836;2023-08-30T02:26:59;13.70;99.90
37300;DHT22;23184;51.902;12.836;2023-08-30T02:29:25;13.80;99.90
37300;DHT22;23184;51.902;12.836;2023-08-30T02:31:50;13.80;99.90
37300;DHT22;23184;51.902;12.836;2023-08-30T02:34:16;13.80;99.90
37300;DHT22;23184;51.902;12.836;2023-08-30T02:36:41;13.80;99.90
37300;DHT22;23184;51.902;12.836;2023-08-30T02:39:07;13.70;99.90
37300;DHT22;23184;51.902;12.836;2023-08-30T02:41:32;13.80;99.90
37300;DHT22;23184;51.902;12.836;2023-08-30T02:43:58;13.80;99.90
37300;DHT22;23184;51.902;12.836;2023-08-30T02:46:23;13.80;99.90
37300;DHT22;23184;51.902;12.836;2023-08-30T02:48:49;13.90;99.90
37300;DHT22;23184;51.902;12.836;2023-08-30T02:51:14;13.90;99.90
37300;DHT22;23184;51.902;12.836;2023-08-30T02:53:40;13.90;99.90
37300;DHT22;23184;51.902;12.836;2023-08-30T02:56:05;13.80;99.90
37300;DHT22;23184;51.902;12.836;2023-08-30T02:58:31;13.80;99.90
37300;DHT22;23184;51.902;12.836;2023-08-30T03:00:56;13.80;99.90
37300;DHT22;23184;51.902;12.836;2023-08-30T03:03:22;13.80;99.90
37300;DHT22;23184;51.902;12.836;2023-08-30T03:05:47;13.70;99.90
37300;DHT22;23184;51.902;12.836;2023-08-30T03:08:13;13.70;99.90
37300;DHT22;23184;51.902;12.836;2023-08-30T03:10:38;13.70;99.90
37300;DHT22;23184;51.902;12.836;2023-08-30T03:13:04;13.70;99.90
37300;DHT22;23184;51.902;12.836;2023-08-30T03:15:33;13.70;99.90
37300;DHT22;23184;51.902;12.836;2023-08-30T03:18:00;13.70;99.90
37300;DHT22;23184;51.902;12.836;2023-08-30T03:20:25;13.70;99.90
37300;DHT22;23184;51.902;12.836;2023-08-30T03:22:51;13.80;99.90
37300;DHT22;23184;51.902;12.836;2023-08-30T03:25:16;13.80;99.90
37300;DHT22;23184;51.902;12.836;2023-08-30T03:27:44;13.70;99.90
37300;DHT22;23184;51.902;12.836;2023-08-30T03:30:10;13.70;99.90
37300;DHT22;23184;51.902;12.836;2023-08-30T03:32:36;13.70;99.90
37300;DHT22;23184;51.902;12.836;2023-08-30T03:35:03;13.60;99.90
37300;DHT22;23184;51.902;12.836;2023-08-30T03:37:29;13.60;99.90
37300;DHT22;23184;51.902;12.836;2023-08-30T03:39:54;13.50;99.90
37300;DHT22;23184;51.902;12.836;2023-08-30T03:42:20;13.50;99.90
37300;DHT22;23184;51.902;12.836;2023-08-30T03:44:45;13.50;99.90
37300;DHT22;23184;51.902;12.836;2023-08-30T03:47:11;13.60;99.90
37300;DHT22;23184;51.902;12.836;2023-08-30T03:49:36;13.60;99.90
37300;DHT22;23184;51.902;12.836;2023-08-30T03:52:02;13.70;99.90
37300;DHT22;23184;51.902;12.836;2023-08-30T03:54:27;13.60;99.90
37300;DHT22;23184;51.902;12.836;2023-08-30T03:56:53;13.70;99.90
37300;DHT22;23184;51.902;12.836;2023-08-30T03:59:18;13.70;99.90
37300;DHT22;23184;51.902;12.836;2023-08-30T04:01:44;13.70;99.90
37300;DHT22;23184;51.902;12.836;2023-08-30T04:04:10;13.70;99.90
37300;DHT22;23184;51.902;12.836;2023-08-30T04:06:36;13.70;99.90
37300;DHT22;23184;51.902;12.836;2023-08-30T04:09:01;13.70;99.90
37300;DHT22;23184;51.902;12.836;2023-08-30T04:11:27;13.70;99.90
37300;DHT22;23184;51.902;12.836;2023-08-30T04:13:52;13.70;99.90
37300;DHT22;23184;51.902;12.836;2023-08-30T04:16:18;13.80;99.90
37300;DHT22;23184;51.902;12.836;2023-08-30T04:18:43;13.70;99.90
37300;DHT22;23184;51.902;12.836;2023-08-30T04:21:09;13.70;99.90
37300;DHT22;23184;51.902;12.836;2023-08-30T04:23:35;13.80;99.90
37300;DHT22;23184;51.902;12.836;2023-08-30T04:26:00;13.70;99.90
37300;DHT22;23184;51.902;12.836;2023-08-30T04:28:26;13.70;99.90
37300;DHT22;23184;51.902;12.836;2023-08-30T04:30:55;13.70;99.90
37300;DHT22;23184;51.902;12.836;2023-08-30T04:33:21;13.70;99.90
37300;DHT22;23184;51.902;12.836;2023-08-30T04:35:54;13.70;99.90
37300;DHT22;23184;51.902;12.836;2023-08-30T04:38:20;13.70;99.90
37300;DHT22;23184;51.902;12.836;2023-08-30T04:40:46;13.80;99.90
37300;DHT22;23184;51.902;12.836;2023-08-30T04:43:12;13.80;99.90
37300;DHT22;23184;51.902;12.836;2023-08-30T04:45:37;13.80;99.90
37300;DHT22;23184;51.902;12.836;2023-08-30T04:48:03;13.90;99.90
37300;DHT22;23184;51.902;12.836;2023-08-30T04:50:29;13.90;99.90
37300;DHT22;23184;51.902;12.836;2023-08-30T04:52:56;13.90;99.90
37300;DHT22;23184;51.902;12.836;2023-08-30T04:55:23;13.90;99.90
37300;DHT22;23184;51.902;12.836;2023-08-30T04:57:49;13.90;99.90
37300;DHT22;23184;51.902;12.836;2023-08-30T05:00:14;13.90;99.90
37300;DHT22;23184;51.902;12.836;2023-08-30T05:02:40;13.90;99.90
37300;DHT22;23184;51.902;12.836;2023-08-30T05:05:09;13.90;99.90
37300;DHT22;23184;51.902;12.836;2023-08-30T05:07:34;13.90;99.90
37300;DHT22;23184;51.902;12.836;2023-08-30T05:10:00;13.90;99.90
37300;DHT22;23184;51.902;12.836;2023-08-30T05:12:25;13.80;99.90
37300;DHT22;23184;51.902;12.836;2023-08-30T05:14:51;13.80;99.90
37300;DHT22;23184;51.902;12.836;2023-08-30T05:17:16;13.90;99.90
37300;DHT22;23184;51.902;12.836;2023-08-30T05:19:43;13.90;99.90
37300;DHT22;23184;51.902;12.836;2023-08-30T05:22:08;13.90;99.90
37300;DHT22;23184;51.902;12.836;2023-08-30T05:24:34;13.90;99.90
37300;DHT22;23184;51.902;12.836;2023-08-30T05:26:59;13.90;99.90
37300;DHT22;23184;51.902;12.836;2023-08-30T05:29:25;13.90;99.90
37300;DHT22;23184;51.902;12.836;2023-08-30T05:31:50;13.90;99.90
37300;DHT22;23184;51.902;12.836;2023-08-30T05:34:16;14.00;99.90
37300;DHT22;23184;51.902;12.836;2023-08-30T05:36:41;14.00;99.90
37300;DHT22;23184;51.902;12.836;2023-08-30T05:39:07;14.10;99.90
37300;DHT22;23184;51.902;12.836;2023-08-30T05:41:32;14.10;99.90
37300;DHT22;23184;51.902;12.836;2023-08-30T05:43:58;14.10;99.90
37300;DHT22;23184;51.902;12.836;2023-08-30T05:46:23;14.20;99.90
37300;DHT22;23184;51.902;12.836;2023-08-30T05:48:49;14.10;99.90
37300;DHT22;23184;51.902;12.836;2023-08-30T05:51:15;14.20;99.90
37300;DHT22;23184;51.902;12.836;2023-08-30T05:53:40;14.20;99.90
37300;DHT22;23184;51.902;12.836;2023-08-30T05:56:06;14.30;99.90
37300;DHT22;23184;51.902;12.836;2023-08-30T05:58:31;14.40;99.90
37300;DHT22;23184;51.902;12.836;2023-08-30T06:00:57;14.40;99.90
37300;DHT22;23184;51.902;12.836;2023-08-30T06:03:24;14.50;99.90
37300;DHT22;23184;51.902;12.836;2023-08-30T06:05:50;14.50;99.90
37300;DHT22;23184;51.902;12.836;2023-08-30T06:08:15;14.50;99.90
37300;DHT22;23184;51.902;12.836;2023-08-30T06:10:43;14.50;99.90
37300;DHT22;23184;51.902;12.836;2023-08-30T06:13:08;14.50;99.90
37300;DHT22;23184;51.902;12.836;2023-08-30T06:15:35;14.50;99.90
37300;DHT22;23184;51.902;12.836;2023-08-30T06:18:00;14.60;99.90
37300;DHT22;23184;51.902;12.836;2023-08-30T06:20:26;14.60;99.90
37300;DHT22;23184;51.902;12.836;2023-08-30T06:22:51;14.70;99.90
37300;DHT22;23184;51.902;12.836;2023-08-30T06:25:17;14.70;99.90
37300;DHT22;23184;51.902;12.836;2023-08-30T06:27:56;14.80;99.90
37300;DHT22;23184;51.902;12.836;2023-08-30T06:30:27;14.90;99.90
37300;DHT22;23184;51.902;12.836;2023-08-30T06:32:52;15.00;99.90
37300;DHT22;23184;51.902;12.836;2023-08-30T06:35:18;15.20;99.90
37300;DHT22;23184;51.902;12.836;2023-08-30T06:37:43;15.40;99.90
37300;DHT22;23184;51.902;12.836;2023-08-30T06:40:09;15.50;99.90
37300;DHT22;23184;51.902;12.836;2023-08-30T06:42:35;15.50;99.90
37300;DHT22;23184;51.902;12.836;2023-08-30T06:45:01;15.40;99.90
37300;DHT22;23184;51.902;12.836;2023-08-30T06:47:27;15.40;99.90
37300;DHT22;23184;51.902;12.836;2023-08-30T06:49:53;15.40;99.90
37300;DHT22;23184;51.902;12.836;2023-08-30T06:52:19;15.50;99.90
37300;DHT22;23184;51.902;12.836;2023-08-30T06:54:44;15.60;99.90
37300;DHT22;23184;51.902;12.836;2023-08-30T06:57:10;16.10;99.90
37300;DHT22;23184;51.902;12.836;2023-08-30T06:59:35;16.60;99.90
37300;DHT22;23184;51.902;12.836;2023-08-30T07:02:02;16.70;99.90
37300;DHT22;23184;51.902;12.836;2023-08-30T07:04:27;17.10;99.90
37300;DHT22;23184;51.902;12.836;2023-08-30T07:06:53;17.40;99.90
37300;DHT22;23184;51.902;12.836;2023-08-30T07:09:19;17.90;99.90
37300;DHT22;23184;51.902;12.836;2023-08-30T07:11:44;17.90;99.90
37300;DHT22;23184;51.902;12.836;2023-08-30T07:14:10;18.40;99.90
37300;DHT22;23184;51.902;12.836;2023-08-30T07:16:36;18.50;99.90
37300;DHT22;23184;51.902;12.836;2023-08-30T07:19:02;19.20;99.90
37300;DHT22;23184;51.902;12.836;2023-08-30T07:21:27;19.50;99.90
37300;DHT22;23184;51.902;12.836;2023-08-30T07:23:53;19.80;99.90
37300;DHT22;23184;51.902;12.836;2023-08-30T07:26:19;19.70;99.90
37300;DHT22;23184;51.902;12.836;2023-08-30T07:28:45;19.90;99.90
37300;DHT22;23184;51.902;12.836;2023-08-30T07:31:11;20.20;99.90
37300;DHT22;23184;51.902;12.836;2023-08-30T07:33:39;19.70;99.90
37300;DHT22;23184;51.902;12.836;2023-08-30T07:36:05;19.00;99.90
37300;DHT22;23184;51.902;12.836;2023-08-30T07:38:31;18.90;99.90
37300;DHT22;23184;51.902;12.836;2023-08-30T07:40:56;18.30;99.90
37300;DHT22;23184;51.902;12.836;2023-08-30T07:43:22;17.70;99.90
37300;DHT22;23184;51.902;12.836;2023-08-30T07:45:47;17.20;99.90
37300;DHT22;23184;51.902;12.836;2023-08-30T07:48:13;17.10;99.90
37300;DHT22;23184;51.902;12.836;2023-08-30T07:50:38;16.80;99.90
37300;DHT22;23184;51.902;12.836;2023-08-30T07:53:04;16.50;99.90
37300;DHT22;23184;51.902;12.836;2023-08-30T07:55:29;16.40;99.90
37300;DHT22;23184;51.902;12.836;2023-08-30T07:57:55;16.50;99.90
37300;DHT22;23184;51.902;12.836;2023-08-30T08:00:21;16.40;99.90
37300;DHT22;23184;51.902;12.836;2023-08-30T08:02:46;16.30;99.90
37300;DHT22;23184;51.902;12.836;2023-08-30T08:05:12;16.40;99.90
37300;DHT22;23184;51.902;12.836;2023-08-30T08:07:39;16.40;99.90
37300;DHT22;23184;51.902;12.836;2023-08-30T08:10:06;16.40;99.90
37300;DHT22;23184;51.902;12.836;2023-08-30T08:12:32;16.50;99.90
37300;DHT22;23184;51.902;12.836;2023-08-30T08:14:58;16.40;99.90
37300;DHT22;23184;51.902;12.836;2023-08-30T08:17:24;16.50;99.90
37300;DHT22;23184;51.902;12.836;2023-08-30T08:19:49;16.50;99.90
37300;DHT22;23184;51.902;12.836;2023-08-30T08:22:15;16.50;99.90
37300;DHT22;23184;51.902;12.836;2023-08-30T08:24:41;16.50;99.90
37300;DHT22;23184;51.902;12.836;2023-08-30T08:27:09;16.60;99.90
37300;DHT22;23184;51.902;12.836;2023-08-30T08:29:34;16.80;99.90
37300;DHT22;23184;51.902;12.836;2023-08-30T08:32:00;16.80;99.90
37300;DHT22;23184;51.902;12.836;2023-08-30T08:34:25;17.00;99.90
37300;DHT22;23184;51.902;12.836;2023-08-30T08:36:51;17.30;99.90
37300;DHT22;23184;51.902;12.836;2023-08-30T08:39:16;17.30;99.90
37300;DHT22;23184;51.902;12.836;2023-08-30T08:41:45;17.60;99.90
37300;DHT22;23184;51.902;12.836;2023-08-30T08:44:11;17.70;99.90
37300;DHT22;23184;51.902;12.836;2023-08-30T08:46:39;17.80;99.90
37300;DHT22;23184;51.902;12.836;2023-08-30T08:49:15;18.30;99.90
37300;DHT22;23184;51.902;12.836;2023-08-30T08:51:42;18.70;99.90
37300;DHT22;23184;51.902;12.836;2023-08-30T08:54:08;19.40;99.90
37300;DHT22;23184;51.902;12.836;2023-08-30T08:56:37;19.80;99.90
37300;DHT22;23184;51.902;12.836;2023-08-30T08:59:03;20.30;99.90
37300;DHT22;23184;51.902;12.836;2023-08-30T09:01:33;20.90;99.90
37300;DHT22;23184;51.902;12.836;2023-08-30T09:04:07;21.00;99.90
37300;DHT22;23184;51.902;12.836;2023-08-30T09:06:34;20.90;99.90
37300;DHT22;23184;51.902;12.836;2023-08-30T09:09:01;21.00;99.90
37300;DHT22;23184;51.902;12.836;2023-08-30T09:11:28;21.40;99.90
37300;DHT22;23184;51.902;12.836;2023-08-30T09:13:54;21.20;99.90
37300;DHT22;23184;51.902;12.836;2023-08-30T09:16:19;20.90;99.90
37300;DHT22;23184;51.902;12.836;2023-08-30T09:18:56;21.70;99.90
37300;DHT22;23184;51.902;12.836;2023-08-30T09:21:21;21.50;99.90
37300;DHT22;23184;51.902;12.836;2023-08-30T09:23:59;22.60;99.90
37300;DHT22;23184;51.902;12.836;2023-08-30T09:26:26;22.90;99.90
37300;DHT22;23184;51.902;12.836;2023-08-30T09:28:54;23.30;99.90
37300;DHT22;23184;51.902;12.836;2023-08-30T09:31:19;24.70;99.90
37300;DHT22;23184;51.902;12.836;2023-08-30T09:33:46;25.20;99.90
37300;DHT22;23184;51.902;12.836;2023-08-30T09:36:13;24.80;99.90
37300;DHT22;23184;51.902;12.836;2023-08-30T09:38:39;24.70;99.90
37300;DHT22;23184;51.902;12.836;2023-08-30T09:41:05;25.00;99.90
37300;DHT22;23184;51.902;12.836;2023-08-30T09:43:34;24.70;99.90
37300;DHT22;23184;51.902;12.836;2023-08-30T09:46:03;23.90;99.90
37300;DHT22;23184;51.902;12.836;2023-08-30T09:48:31;23.10;99.90
37300;DHT22;23184;51.902;12.836;2023-08-30T09:50:58;23.00;99.90
37300;DHT22;23184;51.902;12.836;2023-08-30T09:53:25;21.90;99.90
37300;DHT22;23184;51.902;12.836;2023-08-30T09:55:55;21.00;99.90
37300;DHT22;23184;51.902;12.836;2023-08-30T09:58:21;21.00;99.90
37300;DHT22;23184;51.902;12.836;2023-08-30T10:00:48;22.60;99.90
37300;DHT22;23184;51.902;12.836;2023-08-30T10:03:17;22.10;99.90
37300;DHT22;23184;51.902;12.836;2023-08-30T10:05:44;21.00;99.90
37300;DHT22;23184;51.902;12.836;2023-08-30T10:08:11;20.70;99.90
37300;DHT22;23184;51.902;12.836;2023-08-30T10:10:39;20.70;99.90
37300;DHT22;23184;51.902;12.836;2023-08-30T10:13:05;20.80;99.90
37300;DHT22;23184;51.902;12.836;2023-08-30T10:15:33;21.40;99.90
37300;DHT22;23184;51.902;12.836;2023-08-30T10:18:01;23.30;99.90
37300;DHT22;23184;51.902;12.836;2023-08-30T10:20:28;23.10;99.90
37300;DHT22;23184;51.902;12.836;2023-08-30T10:22:55;22.80;99.90
37300;DHT22;23184;51.902;12.836;2023-08-30T10:25:26;24.90;99.90
37300;DHT22;23184;51.902;12.836;2023-08-30T10:27:53;25.20;99.90
37300;DHT22;23184;51.902;12.836;2023-08-30T10:30:20;26.70;99.90
37300;DHT22;23184;51.902;12.836;2023-08-30T10:32:46;26.70;99.90
37300;DHT22;23184;51.902;12.836;2023-08-30T10:35:14;26.40;99.90
37300;DHT22;23184;51.902;12.836;2023-08-30T10:37:40;26.10;99.90
37300;DHT22;23184;51.902;12.836;2023-08-30T10:40:06;25.70;99.90
37300;DHT22;23184;51.902;12.836;2023-08-30T10:42:32;26.10;99.90
37300;DHT22;23184;51.902;12.836;2023-08-30T10:45:06;25.20;99.90
37300;DHT22;23184;51.902;12.836;2023-08-30T10:47:35;24.80;99.90
37300;DHT22;23184;51.902;12.836;2023-08-30T10:50:08;25.70;99.90
37300;DHT22;23184;51.902;12.836;2023-08-30T10:52:34;27.20;99.90
37300;DHT22;23184;51.902;12.836;2023-08-30T10:55:08;26.60;96.70
37300;DHT22;23184;51.902;12.836;2023-08-30T10:57:34;25.00;99.70
37300;DHT22;23184;51.902;12.836;2023-08-30T11:00:05;24.60;99.90
37300;DHT22;23184;51.902;12.836;2023-08-30T11:02:31;24.60;99.40
37300;DHT22;23184;51.902;12.836;2023-08-30T11:04:58;24.10;99.40
37300;DHT22;23184;51.902;12.836;2023-08-30T11:07:27;24.40;99.90
37300;DHT22;23184;51.902;12.836;2023-08-30T11:09:53;25.00;98.90
37300;DHT22;23184;51.902;12.836;2023-08-30T11:12:19;26.00;96.10
37300;DHT22;23184;51.902;12.836;2023-08-30T11:14:48;24.80;99.90
37300;DHT22;23184;51.902;12.836;2023-08-30T11:17:16;25.80;96.30
37300;DHT22;23184;51.902;12.836;2023-08-30T11:19:42;25.70;94.30
37300;DHT22;23184;51.902;12.836;2023-08-30T11:22:08;24.80;95.70
37300;DHT22;23184;51.902;12.836;2023-08-30T11:24:34;24.70;96.50
37300;DHT22;23184;51.902;12.836;2023-08-30T11:27:00;24.70;98.90
37300;DHT22;23184;51.902;12.836;2023-08-30T11:29:27;24.90;96.30
37300;DHT22;23184;51.902;12.836;2023-08-30T11:31:52;26.00;95.20
37300;DHT22;23184;51.902;12.836;2023-08-30T11:34:21;25.40;96.20
37300;DHT22;23184;51.902;12.836;2023-08-30T11:36:48;25.40;99.10
37300;DHT22;23184;51.902;12.836;2023-08-30T11:39:16;26.30;95.00
37300;DHT22;23184;51.902;12.836;2023-08-30T11:41:42;26.00;93.50
37300;DHT22;23184;51.902;12.836;2023-08-30T11:44:08;25.80;92.90
37300;DHT22;23184;51.902;12.836;2023-08-30T11:46:33;25.30;93.30
37300;DHT22;23184;51.902;12.836;2023-08-30T11:48:59;25.40;96.10
37300;DHT22;23184;51.902;12.836;2023-08-30T11:51:25;25.50;97.10
37300;DHT22;23184;51.902;12.836;2023-08-30T11:53:51;26.20;97.70
37300;DHT22;23184;51.902;12.836;2023-08-30T11:56:17;26.50;95.80
37300;DHT22;23184;51.902;12.836;2023-08-30T11:58:44;28.00;92.50
37300;DHT22;23184;51.902;12.836;2023-08-30T12:01:10;26.50;93.30
37300;DHT22;23184;51.902;12.836;2023-08-30T12:03:36;25.10;94.60
37300;DHT22;23184;51.902;12.836;2023-08-30T12:06:02;25.70;96.60
37300;DHT22;23184;51.902;12.836;2023-08-30T12:08:31;26.50;93.90
37300;DHT22;23184;51.902;12.836;2023-08-30T12:10:57;24.70;96.20
37300;DHT22;23184;51.902;12.836;2023-08-30T12:13:27;24.20;99.10
37300;DHT22;23184;51.902;12.836;2023-08-30T12:15:54;23.90;98.30
37300;DHT22;23184;51.902;12.836;2023-08-30T12:18:24;23.80;98.70
37300;DHT22;23184;51.902;12.836;2023-08-30T12:23:29;24.60;99.90
37300;DHT22;23184;51.902;12.836;2023-08-30T12:26:02;23.20;99.90
37300;DHT22;23184;51.902;12.836;2023-08-30T12:28:33;22.30;99.90
37300;DHT22;23184;51.902;12.836;2023-08-30T12:30:59;21.60;99.90
37300;DHT22;23184;51.902;12.836;2023-08-30T12:33:25;21.30;99.90
37300;DHT22;23184;51.902;12.836;2023-08-30T12:35:54;21.00;99.90
37300;DHT22;23184;51.902;12.836;2023-08-30T12:38:20;20.80;99.90
37300;DHT22;23184;51.902;12.836;2023-08-30T12:40:48;20.60;99.90
37300;DHT22;23184;51.902;12.836;2023-08-30T12:43:14;20.60;99.90
37300;DHT22;23184;51.902;12.836;2023-08-30T12:45:40;20.60;99.90
37300;DHT22;23184;51.902;12.836;2023-08-30T12:48:07;20.70;99.90
37300;DHT22;23184;51.902;12.836;2023-08-30T12:50:34;20.50;99.90
37300;DHT22;23184;51.902;12.836;2023-08-30T12:53:01;20.30;99.90
37300;DHT22;23184;51.902;12.836;2023-08-30T12:55:26;20.50;99.90
37300;DHT22;23184;51.902;12.836;2023-08-30T12:57:52;20.50;99.90
37300;DHT22;23184;51.902;12.836;2023-08-30T13:00:18;20.60;99.90
37300;DHT22;23184;51.902;12.836;2023-08-30T13:02:44;20.60;99.90
37300;DHT22;23184;51.902;12.836;2023-08-30T13:05:10;20.90;99.90
37300;DHT22;23184;51.902;12.836;2023-08-30T13:07:36;21.00;99.90
37300;DHT22;23184;51.902;12.836;2023-08-30T13:10:02;21.00;99.90
37300;DHT22;23184;51.902;12.836;2023-08-30T13:12:28;21.10;99.90
37300;DHT22;23184;51.902;12.836;2023-08-30T13:14:53;21.90;99.90
37300;DHT22;23184;51.902;12.836;2023-08-30T13:17:19;23.10;99.90
37300;DHT22;23184;51.902;12.836;2023-08-30T13:19:44;22.90;99.90
37300;DHT22;23184;51.902;12.836;2023-08-30T13:22:10;23.10;99.90
37300;DHT22;23184;51.902;12.836;2023-08-30T13:24:36;24.00;99.90
37300;DHT22;23184;51.902;12.836;2023-08-30T13:27:02;24.40;99.90
37300;DHT22;23184;51.902;12.836;2023-08-30T13:29:28;23.70;99.90
37300;DHT22;23184;51.902;12.836;2023-08-30T13:31:53;23.80;99.90
37300;DHT22;23184;51.902;12.836;2023-08-30T13:34:19;23.90;99.90
37300;DHT22;23184;51.902;12.836;2023-08-30T13:36:44;24.10;99.90
37300;DHT22;23184;51.902;12.836;2023-08-30T13:39:10;24.30;99.90
37300;DHT22;23184;51.902;12.836;2023-08-30T13:41:36;24.30;99.90
37300;DHT22;23184;51.902;12.836;2023-08-30T13:44:02;24.40;99.90
37300;DHT22;23184;51.902;12.836;2023-08-30T13:46:32;24.40;99.90
37300;DHT22;23184;51.902;12.836;2023-08-30T13:48:57;24.60;99.90
37300;DHT22;23184;51.902;12.836;2023-08-30T13:51:24;24.50;99.90
37300;DHT22;23184;51.902;12.836;2023-08-30T13:53:50;24.40;99.90
37300;DHT22;23184;51.902;12.836;2023-08-30T13:56:16;24.50;99.90
37300;DHT22;23184;51.902;12.836;2023-08-30T13:58:41;24.60;99.90
37300;DHT22;23184;51.902;12.836;2023-08-30T14:01:07;24.60;99.90
37300;DHT22;23184;51.902;12.836;2023-08-30T14:03:33;24.50;99.90
37300;DHT22;23184;51.902;12.836;2023-08-30T14:05:58;24.40;99.90
37300;DHT22;23184;51.902;12.836;2023-08-30T14:08:24;24.40;99.90
37300;DHT22;23184;51.902;12.836;2023-08-30T14:10:50;24.60;99.90
37300;DHT22;23184;51.902;12.836;2023-08-30T14:13:16;25.60;99.90
37300;DHT22;23184;51.902;12.836;2023-08-30T14:15:41;26.50;99.90
37300;DHT22;23184;51.902;12.836;2023-08-30T14:18:07;26.50;99.90
37300;DHT22;23184;51.902;12.836;2023-08-30T14:20:33;26.20;99.90
37300;DHT22;23184;51.902;12.836;2023-08-30T14:22:59;25.90;99.90
37300;DHT22;23184;51.902;12.836;2023-08-30T14:25:24;25.50;99.90
37300;DHT22;23184;51.902;12.836;2023-08-30T14:27:50;25.10;99.90
37300;DHT22;23184;51.902;12.836;2023-08-30T14:30:16;24.80;99.90
37300;DHT22;23184;51.902;12.836;2023-08-30T14:32:41;24.50;99.90
37300;DHT22;23184;51.902;12.836;2023-08-30T14:35:07;24.60;99.90
37300;DHT22;23184;51.902;12.836;2023-08-30T14:37:33;24.60;99.90
37300;DHT22;23184;51.902;12.836;2023-08-30T14:40:02;25.10;99.90
37300;DHT22;23184;51.902;12.836;2023-08-30T14:42:29;25.20;99.90
37300;DHT22;23184;51.902;12.836;2023-08-30T14:44:55;25.20;99.90
37300;DHT22;23184;51.902;12.836;2023-08-30T14:47:20;25.20;99.90
37300;DHT22;23184;51.902;12.836;2023-08-30T14:49:46;25.10;99.90
37300;DHT22;23184;51.902;12.836;2023-08-30T14:52:13;25.40;99.90
37300;DHT22;23184;51.902;12.836;2023-08-30T14:54:38;26.40;99.90
37300;DHT22;23184;51.902;12.836;2023-08-30T14:57:04;27.30;99.90
37300;DHT22;23184;51.902;12.836;2023-08-30T14:59:29;28.20;99.90
37300;DHT22;23184;51.902;12.836;2023-08-30T15:01:55;28.90;99.90
37300;DHT22;23184;51.902;12.836;2023-08-30T15:04:21;29.50;99.10
37300;DHT22;23184;51.902;12.836;2023-08-30T15:06:46;30.00;96.20
37300;DHT22;23184;51.902;12.836;2023-08-30T15:09:12;30.30;94.40
37300;DHT22;23184;51.902;12.836;2023-08-30T15:11:41;30.60;91.00
37300;DHT22;23184;51.902;12.836;2023-08-30T15:14:07;30.60;89.20
37300;DHT22;23184;51.902;12.836;2023-08-30T15:16:32;30.20;86.60